Time;durP1;ratioP1;P1;durP2;ratioP2;P2;SDS_P1;SDS_P2;PMS_P1;PMS_P2;Temp;Humidity;BMP_temperature;BMP_pressure;BME280_temperature;BME280_humidity;BME280_pressure;Samples;Min_cycle;Max_cycle;Signal;HPM_P1;HPM_P2
2022/04/06 00:00:46;;;;;;;0.00;0.00;;;;;;;;;;4212905;28;20073;-35
2022/04/06 00:02:47;;;;;;;0.52;0.10;;;;;;;;;;4212733;28;20048;-34
2022/04/06 00:04:48;;;;;;;0.00;0.00;;;;;;;;;;4212536;28;20078;-34
2022/04/06 00:06:52;;;;;;;0.10;0.00;;;;;;;;;;4212919;28;20443;-34
2022/04/06 00:08:53;;;;;;;0.00;0.00;;;;;;;;;;4210694;28;20069;-34
2022/04/06 00:10:54;;;;;;;0.10;0.10;;;;;;;;;;4212449;28;20048;-34
2022/04/06 00:12:56;;;;;;;0.00;0.00;;;;;;;;;;4212415;28;20499;-35
2022/04/06 00:14:57;;;;;;;0.10;0.00;;;;;;;;;;4212418;28;20143;-35
2022/04/06 00:17:03;;;;;;;0.00;0.00;;;;;;;;;;4212676;28;20044;-35
2022/04/06 00:19:04;;;;;;;0.00;0.00;;;;;;;;;;4212496;28;20441;-35
2022/04/06 00:21:05;;;;;;;0.20;0.10;;;;;;;;;;4211475;28;20044;-35
2022/04/06 00:23:06;;;;;;;0.08;0.08;;;;;;;;;;4212262;28;20063;-35
2022/04/06 00:25:07;;;;;;;0.00;0.00;;;;;;;;;;4212462;28;20091;-35
2022/04/06 00:27:08;;;;;;;0.03;0.00;;;;;;;;;;4212422;28;20165;-35
2022/04/06 00:29:09;;;;;;;0.00;0.00;;;;;;;;;;4212348;28;20088;-35
2022/04/06 00:31:10;;;;;;;0.10;0.08;;;;;;;;;;4212399;28;20147;-35
2022/04/06 00:33:11;;;;;;;0.10;0.10;;;;;;;;;;4212355;28;20450;-35
2022/04/06 00:37:32;;;;;;;;;;;;;;;;;;4212943;28;20048;-35
2022/04/06 00:39:33;;;;;;;0.35;0.10;;;;;;;;;;4211779;28;20337;-35
2022/04/06 00:41:34;;;;;;;0.00;0.00;;;;;;;;;;4212327;28;20047;-35
2022/04/06 00:43:35;;;;;;;0.05;0.00;;;;;;;;;;4212140;28;20488;-35
2022/04/06 00:45:38;;;;;;;0.40;0.10;;;;;;;;;;4212415;28;20516;-35
2022/04/06 00:47:39;;;;;;;0.60;0.03;;;;;;;;;;4212395;28;20542;-35
2022/04/06 00:49:39;;;;;;;0.10;0.00;;;;;;;;;;4212349;28;20078;-35
2022/04/06 00:51:42;;;;;;;0.00;0.00;;;;;;;;;;4212252;28;20174;-35
2022/04/06 00:53:44;;;;;;;0.00;0.00;;;;;;;;;;4211803;28;20513;-35
2022/04/06 00:55:45;;;;;;;0.00;0.00;;;;;;;;;;4215354;28;20048;-35
2022/04/06 00:57:46;;;;;;;0.10;0.00;;;;;;;;;;4215799;28;20437;-35
2022/04/06 00:59:47;;;;;;;0.00;0.00;;;;;;;;;;4215397;28;20106;-35
2022/04/06 01:01:49;;;;;;;0.00;0.00;;;;;;;;;;4215484;28;20055;-35
2022/04/06 01:03:50;;;;;;;0.10;0.10;;;;;;;;;;4215317;28;20056;-35
2022/04/06 01:05:51;;;;;;;0.00;0.00;;;;;;;;;;4215410;28;20501;-35
2022/04/06 01:07:54;;;;;;;0.35;0.10;;;;;;;;;;4215261;28;20044;-35
2022/04/06 01:09:55;;;;;;;0.47;0.10;;;;;;;;;;4214785;28;20488;-35
2022/04/06 01:11:57;;;;;;;0.00;0.00;;;;;;;;;;4215405;28;20154;-35
2022/04/06 01:13:58;;;;;;;0.10;0.10;;;;;;;;;;4214973;28;20102;-35
2022/04/06 01:15:59;;;;;;;0.00;0.00;;;;;;;;;;4215172;28;20052;-35
2022/04/06 01:18:00;;;;;;;0.15;0.00;;;;;;;;;;4215249;28;20106;-35
2022/04/06 01:20:02;;;;;;;0.00;0.00;;;;;;;;;;4215350;28;20349;-35
2022/04/06 01:22:06;;;;;;;0.20;0.08;;;;;;;;;;4215246;28;20074;-35
2022/04/06 01:24:08;;;;;;;0.00;0.00;;;;;;;;;;4214615;28;20158;-35
2022/04/06 01:26:09;;;;;;;0.93;0.10;;;;;;;;;;4213826;28;20181;-35
2022/04/06 01:28:10;;;;;;;0.00;0.00;;;;;;;;;;4214994;28;20071;-35
2022/04/06 01:30:12;;;;;;;0.00;0.00;;;;;;;;;;4215000;28;20493;-35
2022/04/06 01:32:16;;;;;;;0.00;0.00;;;;;;;;;;4214882;28;20514;-35
2022/04/06 01:34:17;;;;;;;0.10;0.00;;;;;;;;;;4214780;28;20056;-35
2022/04/06 01:36:18;;;;;;;0.00;0.00;;;;;;;;;;4214842;28;20048;-35
2022/04/06 01:38:19;;;;;;;0.08;0.08;;;;;;;;;;4214345;28;20040;-35
2022/04/06 01:40:21;;;;;;;0.45;0.10;;;;;;;;;;4213584;28;20070;-35
2022/04/06 01:42:22;;;;;;;0.88;0.00;;;;;;;;;;4215092;28;20047;-35
2022/04/06 01:44:23;;;;;;;0.00;0.00;;;;;;;;;;4214942;28;20166;-35
2022/04/06 01:46:24;;;;;;;0.10;0.00;;;;;;;;;;4214669;28;20398;-35
2022/04/06 01:48:25;;;;;;;0.10;0.08;;;;;;;;;;4214637;28;20044;-35
2022/04/06 01:52:45;;;;;;;0.10;0.10;;;;;;;;;;4213737;28;20078;-35
2022/04/06 01:54:50;;;;;;;0.20;0.00;;;;;;;;;;4213884;28;20055;-35
2022/04/06 01:56:51;;;;;;;0.00;0.00;;;;;;;;;;4214879;28;20052;-35
2022/04/06 01:58:52;;;;;;;0.05;0.05;;;;;;;;;;4214345;28;20703;-34
2022/04/06 02:00:53;;;;;;;0.03;0.00;;;;;;;;;;4214673;28;20048;-35
2022/04/06 02:02:55;;;;;;;0.00;0.00;;;;;;;;;;4213306;28;20043;-35
2022/04/06 02:04:56;;;;;;;0.05;0.00;;;;;;;;;;4213106;28;20048;-35
2022/04/06 02:06:58;;;;;;;0.00;0.00;;;;;;;;;;4212267;28;20560;-35
2022/04/06 02:08:58;;;;;;;0.10;0.00;;;;;;;;;;4213955;28;20097;-35
2022/04/06 02:10:59;;;;;;;0.30;0.10;;;;;;;;;;4214319;28;20748;-35
2022/04/06 02:13:01;;;;;;;0.30;0.20;;;;;;;;;;4212891;28;20064;-35
2022/04/06 02:15:02;;;;;;;0.10;0.10;;;;;;;;;;4214158;28;20093;-35
2022/04/06 02:17:04;;;;;;;0.35;0.10;;;;;;;;;;4214266;28;20044;-35
2022/04/06 02:19:05;;;;;;;0.10;0.10;;;;;;;;;;4214053;28;20048;-35
2022/04/06 02:21:05;;;;;;;0.05;0.00;;;;;;;;;;4214137;28;20058;-35
2022/04/06 02:23:06;;;;;;;0.08;0.00;;;;;;;;;;4213973;28;20100;-35
2022/04/06 02:25:08;;;;;;;0.05;0.00;;;;;;;;;;4213986;28;20491;-35
2022/04/06 02:27:09;;;;;;;0.00;0.00;;;;;;;;;;4214032;28;20048;-35
2022/04/06 02:29:10;;;;;;;0.10;0.10;;;;;;;;;;4213902;28;20139;-35
2022/04/06 02:31:11;;;;;;;0.20;0.10;;;;;;;;;;4214243;28;20086;-35
2022/04/06 02:33:11;;;;;;;0.05;0.05;;;;;;;;;;4214151;28;20620;-35
2022/04/06 02:35:13;;;;;;;0.03;0.03;;;;;;;;;;4213722;28;20047;-35
2022/04/06 02:37:14;;;;;;;0.00;0.00;;;;;;;;;;4213885;28;20044;-35
2022/04/06 02:39:15;;;;;;;0.20;0.10;;;;;;;;;;4213453;28;20441;-35
2022/04/06 02:41:17;;;;;;;0.00;0.00;;;;;;;;;;4213917;28;20047;-35
2022/04/06 02:43:18;;;;;;;0.08;0.00;;;;;;;;;;4213969;28;20043;-35
2022/04/06 02:45:19;;;;;;;0.00;0.00;;;;;;;;;;4213909;28;20399;-35
2022/04/06 02:47:20;;;;;;;0.00;0.00;;;;;;;;;;4213733;28;20044;-35
2022/04/06 02:49:21;;;;;;;0.00;0.00;;;;;;;;;;4213785;28;20113;-35
2022/04/06 02:51:22;;;;;;;0.10;0.00;;;;;;;;;;4212498;28;20052;-35
2022/04/06 02:53:23;;;;;;;0.00;0.00;;;;;;;;;;4213204;28;20108;-35
2022/04/06 02:55:24;;;;;;;0.00;0.00;;;;;;;;;;4213717;28;20089;-35
2022/04/06 02:57:25;;;;;;;0.25;0.10;;;;;;;;;;4213723;28;20399;-35
2022/04/06 02:59:26;;;;;;;0.03;0.03;;;;;;;;;;4213786;28;20120;-35
2022/04/06 03:01:28;;;;;;;0.20;0.00;;;;;;;;;;4212223;28;20164;-35
2022/04/06 03:03:28;;;;;;;0.13;0.00;;;;;;;;;;4195352;28;20434;-35
2022/04/06 03:05:29;;;;;;;0.00;0.00;;;;;;;;;;4213604;28;20075;-35
2022/04/06 03:07:30;;;;;;;0.00;0.00;;;;;;;;;;4213465;28;20082;-35
2022/04/06 03:09:31;;;;;;;0.00;0.00;;;;;;;;;;4212944;28;20052;-35
2022/04/06 03:11:33;;;;;;;0.00;0.00;;;;;;;;;;4213380;28;20048;-35
2022/04/06 03:13:34;;;;;;;0.00;0.00;;;;;;;;;;4213084;28;20055;-35
2022/04/06 03:15:35;;;;;;;0.10;0.00;;;;;;;;;;4213274;28;20090;-35
2022/04/06 03:17:37;;;;;;;0.00;0.00;;;;;;;;;;4211138;28;20044;-35
2022/04/06 03:19:38;;;;;;;0.30;0.10;;;;;;;;;;4213046;28;20101;-35
2022/04/06 03:21:39;;;;;;;0.10;0.00;;;;;;;;;;4213370;28;20527;-35
2022/04/06 03:23:40;;;;;;;0.20;0.00;;;;;;;;;;4212665;28;20193;-35
2022/04/06 03:25:41;;;;;;;0.52;0.00;;;;;;;;;;4213327;28;20441;-35
2022/04/06 03:27:42;;;;;;;0.00;0.00;;;;;;;;;;4213447;28;20109;-35
2022/04/06 03:29:43;;;;;;;0.00;0.00;;;;;;;;;;4212953;28;20052;-35
2022/04/06 03:31:44;;;;;;;0.20;0.10;;;;;;;;;;4213156;28;20055;-35
2022/04/06 03:33:45;;;;;;;0.03;0.03;;;;;;;;;;4211710;28;20101;-35
2022/04/06 03:35:46;;;;;;;0.00;0.00;;;;;;;;;;4213307;28;20192;-35
2022/04/06 03:37:47;;;;;;;0.10;0.08;;;;;;;;;;4213140;28;20044;-35
2022/04/06 03:39:48;;;;;;;0.20;0.10;;;;;;;;;;4212530;28;20044;-35
2022/04/06 03:41:49;;;;;;;0.22;0.10;;;;;;;;;;4213283;28;20097;-35
2022/04/06 03:43:52;;;;;;;0.05;0.00;;;;;;;;;;4213108;28;20516;-35
2022/04/06 03:45:53;;;;;;;0.10;0.00;;;;;;;;;;4213367;28;20044;-35
2022/04/06 03:47:54;;;;;;;0.13;0.03;;;;;;;;;;4213095;28;20048;-35
2022/04/06 03:49:55;;;;;;;0.00;0.00;;;;;;;;;;4212744;28;20090;-35
2022/04/06 03:51:56;;;;;;;0.00;0.00;;;;;;;;;;4212727;28;20048;-35
2022/04/06 03:53:57;;;;;;;0.00;0.00;;;;;;;;;;4212265;28;20209;-35
2022/04/06 03:55:57;;;;;;;0.00;0.00;;;;;;;;;;4212647;28;20044;-36
2022/04/06 03:57:59;;;;;;;0.00;0.00;;;;;;;;;;4211547;28;20370;-35
2022/04/06 04:00:01;;;;;;;0.10;0.10;;;;;;;;;;4212559;28;20117;-35
2022/04/06 04:02:05;;;;;;;0.30;0.00;;;;;;;;;;4212575;28;20052;-35
2022/04/06 04:04:06;;;;;;;0.63;0.10;;;;;;;;;;4212513;28;20044;-35
2022/04/06 04:06:07;;;;;;;0.10;0.10;;;;;;;;;;4212637;28;20468;-35
2022/04/06 04:08:08;;;;;;;1.50;0.03;;;;;;;;;;4211022;28;20169;-35
2022/04/06 04:10:09;;;;;;;0.08;0.08;;;;;;;;;;4212316;28;20048;-35
2022/04/06 04:12:10;;;;;;;0.10;0.00;;;;;;;;;;4212701;28;20055;-35
2022/04/06 04:14:11;;;;;;;0.00;0.00;;;;;;;;;;4212258;28;20147;-35
2022/04/06 04:16:12;;;;;;;0.10;0.00;;;;;;;;;;4212300;28;20091;-35
2022/04/06 04:18:13;;;;;;;0.17;0.00;;;;;;;;;;4211131;28;20093;-35
2022/04/06 04:20:14;;;;;;;0.15;0.10;;;;;;;;;;4211077;28;20124;-35
2022/04/06 04:22:15;;;;;;;0.25;0.10;;;;;;;;;;4212384;28;20074;-35
2022/04/06 04:24:16;;;;;;;0.10;0.10;;;;;;;;;;4211907;28;20101;-36
2022/04/06 04:26:17;;;;;;;0.10;0.00;;;;;;;;;;4211410;28;20047;-35
2022/04/06 04:28:18;;;;;;;0.00;0.00;;;;;;;;;;4212333;28;20173;-35
2022/04/06 04:30:20;;;;;;;0.93;0.10;;;;;;;;;;4215593;28;20054;-35
2022/04/06 04:32:22;;;;;;;0.00;0.00;;;;;;;;;;4216095;28;20121;-35
2022/04/06 04:34:23;;;;;;;0.40;0.00;;;;;;;;;;4215796;28;20052;-35
2022/04/06 04:36:24;;;;;;;0.25;0.00;;;;;;;;;;4215707;28;20087;-35
2022/04/06 04:38:25;;;;;;;0.10;0.10;;;;;;;;;;4215325;28;20506;-35
2022/04/06 04:40:26;;;;;;;0.10;0.00;;;;;;;;;;4214722;28;20040;-35
2022/04/06 04:42:27;;;;;;;0.00;0.00;;;;;;;;;;4215991;28;20101;-35
2022/04/06 04:44:28;;;;;;;0.10;0.10;;;;;;;;;;4215860;28;20103;-35
2022/04/06 04:46:29;;;;;;;0.40;0.10;;;;;;;;;;4215996;28;20073;-35
2022/04/06 04:48:31;;;;;;;0.03;0.03;;;;;;;;;;4214333;28;20051;-35
2022/04/06 04:50:32;;;;;;;0.10;0.05;;;;;;;;;;4214345;28;20055;-35
2022/04/06 04:52:33;;;;;;;0.10;0.10;;;;;;;;;;4215548;28;20057;-35
2022/04/06 04:54:34;;;;;;;0.43;0.10;;;;;;;;;;4214974;28;20532;-35
2022/04/06 04:56:35;;;;;;;0.00;0.00;;;;;;;;;;4215308;28;20078;-35
2022/04/06 04:58:36;;;;;;;0.10;0.03;;;;;;;;;;4214252;28;20102;-35
2022/04/06 05:00:37;;;;;;;0.00;0.00;;;;;;;;;;4212528;28;20063;-35
2022/04/06 05:02:38;;;;;;;0.10;0.05;;;;;;;;;;4213321;28;20044;-35
2022/04/06 05:04:39;;;;;;;0.00;0.00;;;;;;;;;;4213442;28;20048;-35
2022/04/06 05:06:40;;;;;;;0.00;0.00;;;;;;;;;;4213295;28;20048;-35
2022/04/06 05:08:41;;;;;;;0.43;0.10;;;;;;;;;;4211393;28;20594;-35
2022/04/06 05:10:42;;;;;;;0.28;0.10;;;;;;;;;;4211674;28;20063;-36
2022/04/06 05:12:45;;;;;;;0.10;0.10;;;;;;;;;;4212890;28;20067;-35
2022/04/06 05:14:46;;;;;;;0.25;0.15;;;;;;;;;;4213245;28;20132;-35
2022/04/06 05:16:47;;;;;;;0.73;0.15;;;;;;;;;;4213223;28;20058;-35
2022/04/06 05:18:48;;;;;;;0.75;0.08;;;;;;;;;;4213119;28;20392;-35
2022/04/06 05:20:50;;;;;;;0.20;0.10;;;;;;;;;;4213420;28;20105;-35
2022/04/06 05:22:50;;;;;;;1.15;0.10;;;;;;;;;;4213525;28;20047;-36
2022/04/06 05:24:52;;;;;;;0.43;0.10;;;;;;;;;;4212364;28;20357;-34
2022/04/06 05:26:53;;;;;;;0.55;0.10;;;;;;;;;;4212942;28;20048;-35
2022/04/06 05:28:54;;;;;;;0.55;0.10;;;;;;;;;;4212543;28;20051;-36
2022/04/06 05:30:55;;;;;;;0.13;0.05;;;;;;;;;;4212889;28;20052;-34
2022/04/06 05:32:56;;;;;;;0.80;0.15;;;;;;;;;;4212735;28;20450;-34
2022/04/06 05:34:57;;;;;;;1.75;0.10;;;;;;;;;;4212747;28;20103;-34
2022/04/06 05:36:58;;;;;;;0.10;0.10;;;;;;;;;;4211255;28;20201;-34
2022/04/06 05:38:59;;;;;;;2.35;0.20;;;;;;;;;;4210941;28;20390;-34
2022/04/06 05:41:02;;;;;;;2.15;0.30;;;;;;;;;;4203720;28;20101;-34
2022/04/06 05:43:03;;;;;;;1.27;0.38;;;;;;;;;;4198055;28;20041;-34
2022/04/06 05:45:06;;;;;;;0.70;0.20;;;;;;;;;;4202409;28;20392;-35
2022/04/06 05:47:07;;;;;;;1.27;0.30;;;;;;;;;;4211421;28;20040;-34
2022/04/06 05:49:08;;;;;;;0.50;0.10;;;;;;;;;;4209420;28;20059;-34
2022/04/06 08:00:24;;;;;;;5.43;0.90;;;;;;;;;;4198738;27;20646;-35
2022/04/06 08:02:26;;;;;;;8.82;0.60;;;;;;;;;;4190158;28;20060;-34
2022/04/06 08:04:27;;;;;;;5.22;1.75;;;;;;;;;;4189379;28;20420;-34
2022/04/06 08:06:29;;;;;;;2.08;0.30;;;;;;;;;;4184173;28;20110;-35
2022/04/06 08:08:30;;;;;;;1.58;0.57;;;;;;;;;;4192609;28;20748;-35
2022/04/06 08:10:31;;;;;;;2.08;0.30;;;;;;;;;;4190955;28;20474;-35
2022/04/06 08:12:32;;;;;;;1.98;0.30;;;;;;;;;;4177887;28;20065;-35
2022/04/06 08:14:33;;;;;;;3.35;0.32;;;;;;;;;;4184853;28;20193;-37
2022/04/06 08:16:35;;;;;;;3.70;0.35;;;;;;;;;;4186668;28;20565;-35
2022/04/06 08:18:36;;;;;;;1.67;0.30;;;;;;;;;;4176886;28;20415;-35
2022/04/06 08:20:37;;;;;;;4.55;0.60;;;;;;;;;;4175178;28;20056;-35
2022/04/06 08:22:40;;;;;;;2.67;0.95;;;;;;;;;;4180186;28;20465;-34
2022/04/06 08:24:41;;;;;;;3.08;0.30;;;;;;;;;;4183372;28;20449;-35
2022/04/06 08:26:43;;;;;;;2.65;0.38;;;;;;;;;;4180721;28;20061;-34
2022/04/06 08:28:44;;;;;;;5.80;0.47;;;;;;;;;;4182005;28;20052;-34
2022/04/06 08:30:47;;;;;;;0.50;0.20;;;;;;;;;;4180708;28;20405;-34
2022/04/06 08:32:48;;;;;;;1.60;0.40;;;;;;;;;;4181227;28;20059;-34
2022/04/06 08:34:49;;;;;;;4.15;0.85;;;;;;;;;;4213651;28;20074;-34
2022/04/06 08:36:50;;;;;;;1.42;0.40;;;;;;;;;;4182839;28;20319;-37
2022/04/06 08:38:52;;;;;;;2.25;0.30;;;;;;;;;;4176896;28;22390;-35
2022/04/06 08:40:53;;;;;;;2.88;0.40;;;;;;;;;;4181040;28;20109;-34
2022/04/06 08:42:54;;;;;;;1.83;0.38;;;;;;;;;;4183318;28;20102;-34
2022/04/06 08:44:55;;;;;;;0.70;0.30;;;;;;;;;;4181513;28;20053;-36
2022/04/06 08:47:04;;;;;;;1.55;0.30;;;;;;;;;;4181463;28;20064;-34
2022/04/06 08:49:05;;;;;;;1.25;0.30;;;;;;;;;;4181815;28;20074;-34
2022/04/06 08:51:09;;;;;;;3.15;0.38;;;;;;;;;;4180773;28;20048;-34
2022/04/06 08:53:11;;;;;;;5.05;0.30;;;;;;;;;;4186462;28;20064;-34
2022/04/06 08:55:13;;;;;;;0.88;0.30;;;;;;;;;;4181523;28;20423;-35
2022/04/06 08:57:16;;;;;;;1.48;0.20;;;;;;;;;;4179768;28;20424;-34
2022/04/06 08:59:17;;;;;;;0.30;0.20;;;;;;;;;;4181964;28;20118;-35
2022/04/06 09:01:21;;;;;;;1.48;0.20;;;;;;;;;;4186391;28;20538;-34
2022/04/06 09:03:22;;;;;;;2.00;0.20;;;;;;;;;;4176477;28;20067;-34
2022/04/06 09:05:28;;;;;;;0.65;0.30;;;;;;;;;;4178606;28;20060;-34
2022/04/06 09:07:31;;;;;;;1.02;0.20;;;;;;;;;;4176467;28;20053;-34
2022/04/06 09:09:32;;;;;;;1.35;0.40;;;;;;;;;;4174061;28;20053;-35
2022/04/06 09:11:43;;;;;;;0.57;0.25;;;;;;;;;;4165047;28;20061;-34
2022/04/06 09:13:46;;;;;;;1.48;0.30;;;;;;;;;;4157809;28;20148;-33
2022/04/06 09:15:50;;;;;;;0.73;0.22;;;;;;;;;;4171519;28;20118;-33
2022/04/06 09:17:52;;;;;;;3.03;0.32;;;;;;;;;;4169240;28;20488;-34
2022/04/06 09:19:57;;;;;;;0.75;0.20;;;;;;;;;;4167618;28;20117;-33
2022/04/06 09:21:58;;;;;;;1.83;0.20;;;;;;;;;;4162999;28;20056;-34
2022/04/06 09:24:00;;;;;;;0.20;0.20;;;;;;;;;;4163702;28;20110;-35
2022/04/06 09:26:09;;;;;;;2.83;0.50;;;;;;;;;;4163275;28;20121;-35
2022/04/06 09:28:14;;;;;;;1.33;0.50;;;;;;;;;;4170618;28;20111;-33
2022/04/06 09:30:16;;;;;;;2.20;0.30;;;;;;;;;;4170990;28;20053;-33
2022/04/06 09:32:17;;;;;;;0.85;0.20;;;;;;;;;;4171349;28;20083;-36
2022/04/06 09:34:22;;;;;;;1.10;0.30;;;;;;;;;;4165478;28;20060;-35
2022/04/06 09:36:27;;;;;;;0.85;0.20;;;;;;;;;;4169558;28;20111;-36
2022/04/06 09:38:32;;;;;;;0.55;0.28;;;;;;;;;;4171091;28;20102;-35
2022/04/06 09:40:33;;;;;;;2.15;0.30;;;;;;;;;;4153565;28;20087;-34
2022/04/06 09:42:35;;;;;;;2.08;0.30;;;;;;;;;;4167555;28;20110;-34
2022/04/06 09:49:43;;;;;;;0.10;0.10;;;;;;;;;;4167273;28;20074;-35
2022/04/06 09:51:46;;;;;;;0.10;0.10;;;;;;;;;;4163971;28;20057;-35
2022/04/06 09:53:49;;;;;;;0.47;0.22;;;;;;;;;;4165047;28;20943;-35
2022/04/06 09:55:53;;;;;;;1.77;0.32;;;;;;;;;;4161584;28;20621;-34
2022/04/06 09:57:56;;;;;;;0.32;0.10;;;;;;;;;;4158229;28;20057;-35
2022/04/06 09:59:58;;;;;;;3.42;0.38;;;;;;;;;;4161763;28;20060;-36
2022/04/06 10:02:00;;;;;;;1.45;0.20;;;;;;;;;;4163249;28;20123;-34
2022/04/06 10:04:03;;;;;;;0.52;0.20;;;;;;;;;;4164853;28;20056;-35
2022/04/06 10:06:05;;;;;;;3.08;0.28;;;;;;;;;;4167778;28;20389;-36
2022/04/06 10:08:07;;;;;;;2.58;0.30;;;;;;;;;;4165447;28;20071;-36
2022/04/06 10:10:10;;;;;;;1.38;0.40;;;;;;;;;;4168786;28;20059;-36
2022/04/06 10:12:11;;;;;;;0.77;0.20;;;;;;;;;;4170696;28;20057;-36
2022/04/06 10:14:13;;;;;;;1.17;0.10;;;;;;;;;;4170119;28;20068;-36
2022/04/06 10:16:16;;;;;;;1.38;0.20;;;;;;;;;;4175647;28;20134;-35
2022/04/06 10:18:18;;;;;;;1.77;0.20;;;;;;;;;;4172113;28;20369;-35
2022/04/06 10:20:27;;;;;;;2.42;0.20;;;;;;;;;;4173702;28;20087;-36
2022/04/06 10:22:38;;;;;;;0.60;0.30;;;;;;;;;;4164502;28;20052;-38
2022/04/06 10:25:02;;;;;;;0.60;0.20;;;;;;;;;;4167280;28;20060;-37
2022/04/06 10:27:08;;;;;;;0.75;0.10;;;;;;;;;;4168040;28;20110;-36
2022/04/06 10:29:09;;;;;;;3.60;0.50;;;;;;;;;;4163387;28;20074;-36
2022/04/06 10:31:19;;;;;;;0.77;0.25;;;;;;;;;;4169093;28;20093;-36
2022/04/06 10:33:21;;;;;;;1.35;0.20;;;;;;;;;;4172136;28;20064;-36
2022/04/06 10:35:27;;;;;;;4.38;0.38;;;;;;;;;;4169150;28;20150;-36
2022/04/06 10:37:28;;;;;;;7.00;0.75;;;;;;;;;;4162088;28;20056;-36
2022/04/06 10:39:30;;;;;;;0.65;0.20;;;;;;;;;;4158417;28;20784;-36
2022/04/06 10:41:38;;;;;;;3.50;0.50;;;;;;;;;;4164266;28;20129;-37
2022/04/06 10:43:43;;;;;;;3.03;1.08;;;;;;;;;;4171843;28;20498;-36
2022/04/06 10:45:44;;;;;;;4.43;0.60;;;;;;;;;;4166278;28;20067;-36
2022/04/06 10:48:18;;;;;;;10.88;0.70;;;;;;;;;;4161171;28;20060;-36
2022/04/06 10:50:22;;;;;;;3.92;0.82;;;;;;;;;;4168367;28;20049;-36
2022/04/06 10:52:25;;;;;;;3.63;0.47;;;;;;;;;;4173822;28;20057;-36
2022/04/06 10:54:41;;;;;;;4.70;0.75;;;;;;;;;;4166707;28;20135;-36
2022/04/06 10:56:53;;;;;;;3.47;0.38;;;;;;;;;;4161997;28;20202;-37
2022/04/06 10:58:57;;;;;;;2.63;0.60;;;;;;;;;;4166744;28;20503;-36
2022/04/06 11:01:18;;;;;;;1.48;0.40;;;;;;;;;;4160612;28;20052;-36
2022/04/06 11:03:19;;;;;;;5.18;0.30;;;;;;;;;;4158610;28;20103;-35
2022/04/06 11:05:45;;;;;;;2.40;1.13;;;;;;;;;;4171791;28;20052;-35
2022/04/06 11:10:10;;;;;;;1.38;0.30;;;;;;;;;;4168999;28;20056;-35
2022/04/06 11:12:15;;;;;;;3.28;0.70;;;;;;;;;;4168040;28;20187;-35
2022/04/06 11:14:25;;;;;;;5.43;0.52;;;;;;;;;;4172266;28;20807;-35
2022/04/06 11:16:42;;;;;;;3.30;0.40;;;;;;;;;;4168949;28;20051;-36
2022/04/06 11:18:44;;;;;;;2.17;0.40;;;;;;;;;;4182798;28;20078;-35
2022/04/06 11:20:46;;;;;;;4.63;0.85;;;;;;;;;;4166918;28;20097;-35
2022/04/06 11:22:54;;;;;;;1.65;0.28;;;;;;;;;;4175201;28;20407;-35
2022/04/06 11:24:56;;;;;;;2.92;0.40;;;;;;;;;;4174550;28;20052;-35
2022/04/06 11:26:57;;;;;;;1.85;0.30;;;;;;;;;;4170050;28;20056;-35
2022/04/06 11:28:58;;;;;;;1.27;0.30;;;;;;;;;;4170456;28;20059;-34
2022/04/06 11:31:03;;;;;;;3.78;0.63;;;;;;;;;;4171809;28;20056;-35
2022/04/06 11:33:05;;;;;;;2.30;0.30;;;;;;;;;;4168040;28;20061;-35
2022/04/06 11:35:10;;;;;;;3.67;0.47;;;;;;;;;;4171939;28;20459;-34
2022/04/06 11:37:11;;;;;;;2.63;0.30;;;;;;;;;;4165954;28;20090;-34
2022/04/06 11:39:13;;;;;;;1.63;0.30;;;;;;;;;;4172560;28;20053;-35
2022/04/06 11:41:14;;;;;;;0.57;0.10;;;;;;;;;;4167478;28;20099;-36
2022/04/06 11:43:15;;;;;;;3.05;0.57;;;;;;;;;;4166821;28;20103;-35
2022/04/06 11:45:27;;;;;;;1.20;0.30;;;;;;;;;;4170641;28;20597;-35
2022/04/06 11:47:30;;;;;;;2.08;0.22;;;;;;;;;;4171670;28;20662;-35
2022/04/06 11:49:31;;;;;;;2.50;0.35;;;;;;;;;;4168107;28;20287;-37
2022/04/06 11:51:32;;;;;;;2.70;0.30;;;;;;;;;;4167413;28;20512;-35
2022/04/06 11:53:34;;;;;;;1.55;0.32;;;;;;;;;;4167972;28;20110;-36
2022/04/06 11:55:39;;;;;;;6.18;0.35;;;;;;;;;;4173913;28;20056;-36
2022/04/06 11:57:45;;;;;;;4.22;0.40;;;;;;;;;;4165401;28;20064;-36
2022/04/06 11:59:56;;;;;;;4.38;0.38;;;;;;;;;;4175057;28;20869;-35
2022/04/06 12:01:57;;;;;;;6.63;0.38;;;;;;;;;;4171371;28;20547;-36
2022/04/06 12:03:59;;;;;;;3.47;0.40;;;;;;;;;;4170795;28;20087;-36
2022/04/06 12:06:01;;;;;;;4.38;0.40;;;;;;;;;;4174891;28;20503;-34
2022/04/06 12:08:12;;;;;;;1.77;0.17;;;;;;;;;;4169760;28;20044;-35
2022/04/06 12:10:14;;;;;;;1.10;0.30;;;;;;;;;;4168089;28;20574;-36
2022/04/06 12:12:16;;;;;;;1.48;0.30;;;;;;;;;;4169684;28;20061;-36
2022/04/06 12:14:18;;;;;;;3.15;1.08;;;;;;;;;;4171812;28;20330;-35
2022/04/06 12:16:23;;;;;;;1.30;0.30;;;;;;;;;;4167810;28;20094;-35
2022/04/06 12:18:26;;;;;;;1.33;0.70;;;;;;;;;;4165405;28;20662;-35
2022/04/06 12:20:28;;;;;;;3.60;0.68;;;;;;;;;;4167060;28;20504;-35
2022/04/06 12:22:29;;;;;;;2.72;0.40;;;;;;;;;;4170515;28;20091;-36
2022/04/06 12:24:41;;;;;;;5.97;0.70;;;;;;;;;;4169538;28;20098;-35
2022/04/06 12:26:54;;;;;;;2.72;0.82;;;;;;;;;;4177149;28;20608;-35
2022/04/06 12:29:00;;;;;;;2.35;0.47;;;;;;;;;;4167630;28;20753;-35
2022/04/06 12:31:07;;;;;;;2.33;0.52;;;;;;;;;;4172423;28;20057;-35
2022/04/06 12:33:09;;;;;;;1.05;0.30;;;;;;;;;;4164037;28;20048;-36
2022/04/06 12:35:18;;;;;;;2.88;0.50;;;;;;;;;;4167531;28;20126;-35
2022/04/06 12:37:31;;;;;;;3.73;0.50;;;;;;;;;;4169001;28;20350;-36
2022/04/06 12:39:32;;;;;;;1.83;0.25;;;;;;;;;;4163989;28;20548;-36
2022/04/06 12:41:34;;;;;;;3.80;0.50;;;;;;;;;;4174870;28;20071;-36
2022/04/06 12:43:37;;;;;;;3.08;0.60;;;;;;;;;;4168562;28;20476;-36
2022/04/06 12:45:47;;;;;;;2.75;0.50;;;;;;;;;;4172149;28;20118;-37
2022/04/06 12:47:48;;;;;;;2.22;0.55;;;;;;;;;;4178372;28;20057;-36
2022/04/06 12:49:50;;;;;;;3.88;0.40;;;;;;;;;;4176592;28;20057;-36
2022/04/06 12:52:02;;;;;;;3.65;0.50;;;;;;;;;;4159098;28;20087;-36
2022/04/06 12:54:07;;;;;;;1.88;0.50;;;;;;;;;;4174387;28;20110;-36
2022/04/06 12:56:10;;;;;;;0.95;0.25;;;;;;;;;;4170105;28;20065;-35
2022/04/06 12:58:19;;;;;;;0.75;0.30;;;;;;;;;;4177672;28;20060;-34
2022/04/06 13:00:22;;;;;;;5.72;0.30;;;;;;;;;;4162585;28;20341;-36
2022/04/06 13:02:32;;;;;;;2.92;0.28;;;;;;;;;;4171147;28;20061;-37
2022/04/06 13:04:37;;;;;;;1.92;0.30;;;;;;;;;;4175046;28;20529;-35
2022/04/06 13:06:40;;;;;;;1.23;0.40;;;;;;;;;;4168728;28;20068;-34
2022/04/06 13:08:41;;;;;;;1.25;0.30;;;;;;;;;;4177617;28;20087;-35
2022/04/06 13:10:43;;;;;;;0.55;0.20;;;;;;;;;;4174911;28;20056;-35
2022/04/06 13:12:45;;;;;;;1.10;0.40;;;;;;;;;;4178182;28;20147;-35
2022/04/06 13:14:47;;;;;;;1.05;0.60;;;;;;;;;;4177053;28;20052;-34
2022/04/06 13:16:48;;;;;;;1.58;0.20;;;;;;;;;;4180361;28;20053;-34
2022/04/06 13:18:49;;;;;;;0.95;0.20;;;;;;;;;;4179521;28;20091;-35
2022/04/06 13:20:50;;;;;;;1.13;0.20;;;;;;;;;;4181233;28;20060;-37
2022/04/06 13:22:52;;;;;;;1.88;0.40;;;;;;;;;;4174790;28;20471;-35
2022/04/06 13:24:53;;;;;;;1.23;0.35;;;;;;;;;;4179331;28;20500;-35
2022/04/06 13:26:54;;;;;;;2.33;0.25;;;;;;;;;;4174013;28;20523;-35
2022/04/06 13:28:56;;;;;;;0.85;0.32;;;;;;;;;;4178605;28;20109;-36
2022/04/06 13:30:58;;;;;;;3.70;0.30;;;;;;;;;;4182495;28;20057;-36
2022/04/06 13:32:59;;;;;;;0.93;0.20;;;;;;;;;;4181997;28;20053;-36
2022/04/06 13:35:01;;;;;;;0.60;0.20;;;;;;;;;;4181378;28;20477;-36
2022/04/06 13:37:02;;;;;;;1.23;0.35;;;;;;;;;;4181521;28;20403;-35
2022/04/06 13:39:03;;;;;;;2.95;0.40;;;;;;;;;;4176091;28;20052;-36
2022/04/06 13:41:04;;;;;;;1.02;0.10;;;;;;;;;;4169925;28;20420;-34
2022/04/06 13:43:06;;;;;;;2.10;0.30;;;;;;;;;;4178960;28;20136;-37
2022/04/06 13:45:07;;;;;;;1.17;0.20;;;;;;;;;;4179267;28;20076;-35
2022/04/06 13:47:09;;;;;;;0.55;0.30;;;;;;;;;;4180993;28;20476;-35
2022/04/06 13:49:12;;;;;;;2.13;0.20;;;;;;;;;;4179946;28;20064;-36
2022/04/06 13:51:13;;;;;;;0.20;0.10;;;;;;;;;;4177960;28;20193;-35
2022/04/06 13:53:15;;;;;;;1.95;0.10;;;;;;;;;;4176745;28;20052;-37
2022/04/06 13:55:21;;;;;;;0.30;0.10;;;;;;;;;;4181481;28;20101;-37
2022/04/06 13:57:23;;;;;;;0.10;0.10;;;;;;;;;;4176811;28;20118;-37
2022/04/06 13:59:24;;;;;;;0.40;0.20;;;;;;;;;;4177471;28;20350;-36
2022/04/06 14:01:25;;;;;;;1.45;0.20;;;;;;;;;;4178861;28;20056;-36
2022/04/06 14:03:26;;;;;;;0.70;0.10;;;;;;;;;;4182430;28;20056;-36
2022/04/06 14:05:30;;;;;;;0.98;0.13;;;;;;;;;;4182572;28;20056;-36
2022/04/06 14:07:31;;;;;;;0.55;0.20;;;;;;;;;;4184584;28;20106;-36
2022/04/06 14:09:33;;;;;;;1.17;0.20;;;;;;;;;;4178139;28;20560;-37
2022/04/06 14:11:34;;;;;;;1.73;0.20;;;;;;;;;;4182584;28;20058;-36
2022/04/06 14:13:35;;;;;;;0.70;0.22;;;;;;;;;;4182912;28;20502;-36
2022/04/06 14:15:36;;;;;;;0.60;0.15;;;;;;;;;;4184787;28;20106;-37
2022/04/06 14:17:37;;;;;;;0.20;0.10;;;;;;;;;;4182787;28;20095;-36
2022/04/06 14:19:38;;;;;;;0.38;0.10;;;;;;;;;;4181366;28;20150;-36
2022/04/06 14:21:40;;;;;;;0.22;0.20;;;;;;;;;;4182657;28;20049;-36
2022/04/06 14:23:41;;;;;;;1.65;0.20;;;;;;;;;;4181093;28;20106;-36
2022/04/06 14:25:42;;;;;;;0.77;0.30;;;;;;;;;;4180053;28;20064;-35
2022/04/06 14:27:44;;;;;;;0.43;0.30;;;;;;;;;;4181313;28;20095;-34
2022/04/06 14:29:45;;;;;;;1.40;0.20;;;;;;;;;;4180500;28;20052;-35
2022/04/06 14:31:46;;;;;;;0.10;0.10;;;;;;;;;;4180023;28;20083;-35
2022/04/06 14:33:48;;;;;;;0.28;0.20;;;;;;;;;;4175616;28;20458;-34
2022/04/06 14:35:49;;;;;;;3.08;0.20;;;;;;;;;;4178187;28;20111;-35